Joint Base Elmendorf-Richardson, AK (99505)

5:08 AM AKST on January 23, 2017 (GMT -0900)
MGRZA2 | | Change Station

Elev 452 ft 61.22 °N, 149.69 °W | Updated 8 days ago

Overcast
Overcast
32.0 °F
Feels Like 32.0 °F
N
0.0
Wind Variable Wind from North
Gusts 0.0 mph

Today
High -- | Low -- °F
--% Chance of Precip.
Yesterday
High -- | Low -- °F
Precip. -- in
Pressure 29.49 in
Visibility 3.0 miles
Clouds Few 300 ft
Mostly Cloudy 800 ft
Overcast 8000 ft
Dew Point Not available.
Humidity Not available.
Rainfall 0.07 in
Snow Depth Not available.
9:39 AM 4:42 PM
Waning Crescent, 18% visible
SPECI PAED 231359Z 33005KT 3SM BR FEW003 BKN008 OVC080 M14/M15 A2949 RMK AO2A SNB58 BKN V OVC VISNO RWY24 CHINO RWY24 $
Pressure 29.49 in
Visibility 3.0 miles
Clouds Few 300 ft
Mostly Cloudy 800 ft
Overcast 8000 ft
Dew Point Not available.
Humidity Not available.
Rainfall 0.07 in
Snow Depth Not available.
9:39 AM 4:42 PM
Waning Crescent, 18% visible
SPECI PAED 231359Z 33005KT 3SM BR FEW003 BKN008 OVC080 M14/M15 A2949 RMK AO2A SNB58 BKN V OVC VISNO RWY24 CHINO RWY24 $

Get Your Daily Forecast Email!

Thanks for signing up!

Be on the lookout for a verification email in your inbox.

You'll start receiving the daily forecast at 8 AM.

×

10-Day Weather Forecast

Almanac

Astronomy

Jan. 23, 2017 Rise Set
Actual Time
Civil Twilight
Nautical Twilight
Astronomical Twilight
Moon
Length of Visible Light
Length of Day
Tomorrow will be .
, % of the Moon is Illuminated

Today's Extremes

State Highs State Lows

Community

WunderPhotos

Upload Photos

1,962,540 photos uploaded!

WunderBlog® & News

Nearby

Air Quality

  Air Quality AQ Index Pollutant
Not available.

Snow Depth

Station Depth Elevation

Earthquake Activity

City Distance Mag. Time & Date
Minimum magnitude displayed is 2.5.

Coastal Water Temperatures

Place Temperature

Stations

Nearby Weather Stations

Station Location Temp. Windchill Dew Point Humidity Wind Precip. Elev Updated Type
                   

Watches & Warnings

There are currently no watches in effect.